Time;durP1;ratioP1;P1;durP2;ratioP2;P2;SDS_P1;SDS_P2;PMS_P1;PMS_P2;Temp;Humidity;BMP_temperature;BMP_pressure;BME280_temperature;BME280_humidity;BME280_pressure;Samples;Min_cycle;Max_cycle;Signal;HPM_P1;HPM_P2
2023/03/31 00:02:00;;;;;;;1.60;1.20;;;10.90;98.20;;;;;;4997366;28;20538;-76
2023/03/31 00:04:27;;;;;;;1.60;1.20;;;11.00;98.20;;;;;;5008460;28;20464;-77
2023/03/31 00:06:55;;;;;;;1.53;1.10;;;11.00;98.20;;;;;;4998259;28;20492;-76
2023/03/31 00:09:22;;;;;;;1.57;1.10;;;11.00;98.20;;;;;;5009729;28;20500;-77
2023/03/31 00:11:50;;;;;;;1.53;1.10;;;11.10;98.20;;;;;;5003647;28;20853;-76
2023/03/31 00:14:18;;;;;;;1.60;1.20;;;11.10;98.20;;;;;;5012884;28;20780;-76
2023/03/31 00:16:46;;;;;;;1.53;1.10;;;11.10;98.20;;;;;;4998678;28;20572;-76
2023/03/31 00:19:18;;;;;;;1.53;1.10;;;11.10;98.20;;;;;;5012416;28;21075;-77
2023/03/31 00:21:46;;;;;;;1.50;1.20;;;11.10;98.20;;;;;;5001843;28;20472;-78
2023/03/31 00:24:14;;;;;;;1.57;1.10;;;11.10;98.20;;;;;;5008781;28;20548;-77
2023/03/31 00:26:41;;;;;;;1.57;1.10;;;11.10;98.20;;;;;;4998072;28;20487;-78
2023/03/31 00:29:11;;;;;;;1.60;1.20;;;11.10;98.20;;;;;;5005895;28;20460;-77
2023/03/31 00:31:38;;;;;;;1.57;1.13;;;11.10;98.20;;;;;;4999373;28;20488;-77
2023/03/31 00:34:05;;;;;;;1.50;1.10;;;11.20;98.20;;;;;;5007317;28;20453;-78
2023/03/31 00:36:35;;;;;;;1.50;1.10;;;11.20;98.20;;;;;;4998796;28;20487;-79
2023/03/31 00:39:05;;;;;;;1.53;1.10;;;11.20;98.20;;;;;;5011942;28;20464;-79
2023/03/31 00:41:33;;;;;;;1.57;1.10;;;11.20;98.20;;;;;;4997170;28;20548;-79
2023/03/31 00:44:07;;;;;;;1.60;1.13;;;11.20;98.20;;;;;;5006897;28;20571;-77
2023/03/31 00:46:38;;;;;;;1.60;1.20;;;11.20;98.20;;;;;;4999279;28;20483;-80
2023/03/31 00:49:05;;;;;;;1.50;1.10;;;11.20;98.20;;;;;;5003362;28;20997;-77
2023/03/31 00:51:34;;;;;;;1.57;1.10;;;11.10;98.20;;;;;;4974814;28;21042;-77
2023/03/31 00:54:04;;;;;;;1.50;1.00;;;11.10;98.20;;;;;;5007289;28;20468;-77
2023/03/31 00:56:34;;;;;;;1.50;1.00;;;11.10;98.20;;;;;;4994347;28;20496;-77
2023/03/31 00:59:06;;;;;;;1.53;1.10;;;11.10;98.20;;;;;;5007919;28;20464;-77
2023/03/31 01:01:38;;;;;;;1.50;1.10;;;11.10;98.20;;;;;;4991032;28;20480;-78
2023/03/31 01:04:06;;;;;;;1.50;1.07;;;11.00;98.20;;;;;;5002167;28;20480;-78
2023/03/31 01:06:33;;;;;;;1.50;1.07;;;11.00;98.20;;;;;;4994563;28;20516;-78
2023/03/31 01:09:05;;;;;;;1.50;1.00;;;11.00;98.20;;;;;;5004136;28;20943;-77
2023/03/31 01:11:33;;;;;;;1.60;1.43;;;11.00;98.20;;;;;;4989958;28;20484;-77
2023/03/31 01:14:03;;;;;;;1.50;1.00;;;10.90;98.20;;;;;;5006571;28;20457;-79
2023/03/31 01:16:30;;;;;;;1.53;1.00;;;11.00;98.20;;;;;;4993332;28;20563;-77
2023/03/31 01:18:58;;;;;;;1.50;1.10;;;11.00;98.20;;;;;;5004287;28;20460;-77
2023/03/31 01:22:08;;;;;;;1.53;1.10;;;11.00;98.20;;;;;;4985094;28;20589;-77
2023/03/31 01:25:16;;;;;;;1.50;1.10;;;11.00;98.20;;;;;;4938421;29;20463;-78
2023/03/31 01:28:07;;;;;;;1.50;1.10;;;10.90;98.20;;;;;;4916690;29;20531;-78
2023/03/31 01:31:07;;;;;;;1.50;1.00;;;10.90;98.20;;;;;;4999448;28;21094;-78
2023/03/31 01:34:24;;;;;;;1.60;1.20;;;10.90;98.20;;;;;;5013910;28;20471;-79
2023/03/31 01:37:38;;;;;;;1.53;1.10;;;10.90;98.20;;;;;;5003135;28;20487;-78
2023/03/31 01:40:40;;;;;;;1.57;1.10;;;10.90;98.20;;;;;;5020957;28;20466;-77
2023/03/31 01:43:12;;;;;;;1.57;1.20;;;10.90;98.20;;;;;;5010467;28;20486;-77
2023/03/31 01:45:50;;;;;;;1.50;1.10;;;10.90;98.20;;;;;;5027052;28;20463;-77
2023/03/31 01:48:22;;;;;;;1.50;1.00;;;10.90;98.20;;;;;;5011030;28;20490;-77
2023/03/31 01:50:57;;;;;;;1.50;1.00;;;10.90;98.20;;;;;;5008782;28;20545;-78
2023/03/31 01:53:33;;;;;;;1.60;1.20;;;10.90;98.20;;;;;;5041901;28;20477;-79
2023/03/31 01:56:07;;;;;;;1.57;1.10;;;10.90;98.20;;;;;;5020708;28;20550;-78
2023/03/31 01:58:37;;;;;;;1.50;1.10;;;10.90;98.20;;;;;;5041262;28;20485;-81
2023/03/31 02:01:13;;;;;;;1.60;1.20;;;11.00;98.20;;;;;;5017435;28;20470;-78
2023/03/31 02:03:46;;;;;;;1.53;1.10;;;11.00;98.20;;;;;;5041808;28;20597;-78
2023/03/31 02:06:17;;;;;;;1.53;1.17;;;11.00;98.20;;;;;;5021814;28;20478;-78
2023/03/31 02:08:48;;;;;;;1.53;1.10;;;11.00;98.20;;;;;;5039242;28;20506;-79
2023/03/31 02:11:17;;;;;;;1.57;1.10;;;11.00;98.20;;;;;;5020398;28;21012;-78
2023/03/31 02:13:46;;;;;;;1.60;1.20;;;11.00;98.20;;;;;;5041171;28;20481;-78
2023/03/31 02:16:17;;;;;;;1.50;1.00;;;11.00;98.20;;;;;;5020342;28;20485;-77
2023/03/31 02:18:47;;;;;;;1.50;1.10;;;11.00;98.20;;;;;;5039415;28;20490;-78
2023/03/31 02:21:15;;;;;;;1.60;1.10;;;11.00;98.20;;;;;;5022224;28;20482;-79
2023/03/31 02:23:44;;;;;;;1.50;1.10;;;11.00;98.20;;;;;;5038353;28;20484;-79
2023/03/31 02:26:15;;;;;;;1.57;1.20;;;11.10;98.20;;;;;;5021021;28;20482;-78
2023/03/31 02:28:44;;;;;;;1.53;1.10;;;11.00;98.20;;;;;;5038073;28;20497;-78
2023/03/31 02:31:24;;;;;;;1.60;1.20;;;11.00;98.20;;;;;;5019200;28;20522;-78
2023/03/31 02:33:51;;;;;;;1.57;1.10;;;11.00;98.20;;;;;;5037479;28;20461;-79
2023/03/31 02:36:20;;;;;;;1.50;1.00;;;11.00;98.20;;;;;;5020707;28;20498;-78
2023/03/31 02:38:52;;;;;;;1.57;1.20;;;11.00;98.20;;;;;;5041800;28;20476;-79
2023/03/31 02:41:18;;;;;;;1.53;1.10;;;11.00;98.20;;;;;;5020873;28;20478;-78
2023/03/31 02:43:46;;;;;;;1.50;1.00;;;11.00;98.20;;;;;;5043320;28;20483;-78
2023/03/31 02:46:14;;;;;;;1.50;1.00;;;11.00;98.20;;;;;;5020913;28;20919;-76
2023/03/31 02:48:46;;;;;;;1.57;1.03;;;11.00;98.20;;;;;;5038994;28;20907;-76
2023/03/31 02:51:53;;;;;;;1.60;1.20;;;11.00;98.20;;;;;;5021781;28;20562;-80
2023/03/31 02:54:50;;;;;;;1.60;1.10;;;11.00;98.20;;;;;;5034390;28;20467;-78
2023/03/31 02:57:34;;;;;;;1.60;1.30;;;11.00;98.20;;;;;;5027776;28;20489;-78
2023/03/31 03:00:09;;;;;;;1.60;1.10;;;11.00;98.20;;;;;;5032198;28;20463;-77
2023/03/31 03:02:46;;;;;;;1.60;1.20;;;11.00;98.20;;;;;;5030047;28;21031;-79
2023/03/31 03:05:22;;;;;;;1.53;1.10;;;11.00;98.20;;;;;;5027014;28;20467;-78
2023/03/31 03:07:59;;;;;;;1.53;1.10;;;11.00;98.20;;;;;;5030657;28;21013;-77
2023/03/31 03:10:35;;;;;;;1.60;1.10;;;11.00;98.20;;;;;;5030357;28;20463;-79
2023/03/31 03:13:09;;;;;;;1.50;1.00;;;11.00;98.20;;;;;;5028528;28;21151;-78
2023/03/31 03:15:42;;;;;;;1.57;1.10;;;11.00;98.20;;;;;;5028273;28;20463;-78
2023/03/31 03:18:09;;;;;;;1.50;1.00;;;11.00;98.20;;;;;;5044394;28;20860;-77
2023/03/31 03:20:37;;;;;;;1.60;1.17;;;11.00;98.20;;;;;;5027762;28;20463;-79
2023/03/31 03:23:05;;;;;;;1.50;1.10;;;11.00;98.20;;;;;;5031153;28;20693;-77
2023/03/31 03:25:33;;;;;;;1.50;1.10;;;11.00;98.20;;;;;;5029374;28;20502;-77
2023/03/31 03:27:59;;;;;;;1.53;1.10;;;10.90;98.20;;;;;;5033308;28;20582;-77
2023/03/31 03:30:26;;;;;;;1.53;1.10;;;11.00;98.20;;;;;;5031088;28;20500;-78
2023/03/31 03:32:54;;;;;;;1.50;1.10;;;11.00;98.20;;;;;;5034738;28;20585;-78
2023/03/31 03:35:21;;;;;;;1.60;1.20;;;11.00;98.20;;;;;;5034770;28;20461;-78
2023/03/31 03:37:50;;;;;;;1.50;1.10;;;11.00;98.20;;;;;;5046859;28;20752;-78
2023/03/31 03:40:17;;;;;;;1.50;1.10;;;11.00;98.20;;;;;;5034430;28;20467;-78
2023/03/31 03:42:44;;;;;;;1.50;1.00;;;11.00;98.20;;;;;;5048121;28;20469;-78
2023/03/31 03:45:11;;;;;;;1.60;1.10;;;11.00;98.20;;;;;;5036336;28;20463;-77
2023/03/31 03:47:37;;;;;;;1.50;1.10;;;11.00;98.20;;;;;;5029906;28;20494;-77
2023/03/31 03:50:07;;;;;;;1.60;1.10;;;11.00;98.20;;;;;;5034030;28;20467;-77
2023/03/31 03:52:34;;;;;;;1.50;1.07;;;11.10;98.20;;;;;;5042096;28;20508;-79
2023/03/31 03:55:02;;;;;;;1.60;1.10;;;11.10;98.20;;;;;;5037342;28;20455;-77
2023/03/31 03:57:29;;;;;;;1.57;1.13;;;11.10;98.20;;;;;;5041612;28;20698;-77
2023/03/31 03:59:56;;;;;;;1.50;1.00;;;11.10;98.20;;;;;;5038108;28;20553;-80
2023/03/31 04:02:23;;;;;;;1.60;1.20;;;11.10;98.20;;;;;;5035768;28;20482;-78
2023/03/31 04:04:50;;;;;;;1.60;1.10;;;11.10;98.20;;;;;;5039300;28;20537;-78
2023/03/31 04:07:18;;;;;;;1.60;1.10;;;11.10;98.20;;;;;;5034330;28;20493;-77
2023/03/31 04:09:44;;;;;;;1.60;1.10;;;11.10;98.20;;;;;;5041701;28;20752;-78
2023/03/31 04:12:11;;;;;;;1.50;1.10;;;11.10;98.20;;;;;;5036646;28;20481;-77
2023/03/31 04:14:38;;;;;;;1.57;1.20;;;11.10;98.20;;;;;;5037770;28;20451;-77
2023/03/31 04:17:05;;;;;;;4.70;4.40;;;11.10;98.20;;;;;;5031026;28;20482;-77
2023/03/31 04:19:32;;;;;;;1.53;1.10;;;11.10;98.20;;;;;;5036969;28;20466;-77
2023/03/31 04:22:03;;;;;;;1.53;1.10;;;11.10;98.20;;;;;;5030611;28;20762;-77
2023/03/31 04:24:31;;;;;;;1.50;1.00;;;11.10;98.20;;;;;;5036206;28;20494;-77
2023/03/31 04:26:59;;;;;;;1.50;1.10;;;11.20;98.20;;;;;;5038081;28;20568;-77
2023/03/31 04:29:26;;;;;;;1.50;1.10;;;11.20;98.20;;;;;;5037544;28;20467;-77
2023/03/31 04:31:57;;;;;;;1.50;1.10;;;11.20;98.20;;;;;;5036609;28;20484;-78
2023/03/31 04:34:33;;;;;;;1.60;1.20;;;11.20;98.20;;;;;;5041505;28;20459;-77
2023/03/31 04:37:01;;;;;;;1.53;1.00;;;11.20;98.20;;;;;;5030529;28;20489;-77
2023/03/31 04:39:30;;;;;;;1.57;1.10;;;11.20;98.20;;;;;;5039794;28;20455;-77
2023/03/31 04:42:00;;;;;;;1.50;1.10;;;11.20;98.20;;;;;;5029630;28;20892;-77
2023/03/31 04:44:27;;;;;;;1.57;1.20;;;11.20;98.20;;;;;;5044956;28;20476;-77
2023/03/31 04:46:55;;;;;;;1.60;1.20;;;11.20;98.20;;;;;;5029636;28;20477;-78
2023/03/31 04:49:22;;;;;;;1.50;1.10;;;11.20;98.20;;;;;;5037367;28;20853;-77
2023/03/31 04:51:48;;;;;;;1.57;1.10;;;11.20;98.20;;;;;;5034439;28;20904;-77
2023/03/31 04:54:15;;;;;;;1.50;1.00;;;11.20;98.20;;;;;;5052133;28;20455;-77
2023/03/31 04:56:42;;;;;;;1.60;1.10;;;11.20;98.20;;;;;;5040996;28;20473;-77
2023/03/31 04:59:10;;;;;;;1.50;1.10;;;11.20;98.20;;;;;;5052265;28;20485;-78
2023/03/31 05:01:37;;;;;;;1.57;1.10;;;11.20;98.20;;;;;;5033626;28;20489;-78
2023/03/31 05:04:05;;;;;;;1.50;1.10;;;11.20;98.20;;;;;;5047039;28;20568;-77
2023/03/31 05:06:31;;;;;;;1.50;1.10;;;11.20;98.20;;;;;;5030993;28;20490;-77
2023/03/31 05:08:58;;;;;;;1.60;1.10;;;11.20;98.20;;;;;;5040489;28;20728;-77
2023/03/31 05:11:26;;;;;;;1.57;1.10;;;11.20;98.20;;;;;;5029154;28;20573;-77
2023/03/31 05:13:53;;;;;;;1.60;1.20;;;11.30;98.20;;;;;;5037829;28;20482;-77
2023/03/31 05:16:21;;;;;;;1.50;1.10;;;11.30;98.20;;;;;;5032963;28;20646;-77
2023/03/31 05:18:48;;;;;;;1.50;1.10;;;11.30;98.20;;;;;;5050754;28;21016;-77
2023/03/31 05:21:17;;;;;;;1.50;1.10;;;11.40;98.20;;;;;;5035554;28;20989;-77
2023/03/31 05:23:44;;;;;;;1.57;1.10;;;11.40;98.20;;;;;;5044579;28;20493;-78
2023/03/31 05:26:12;;;;;;;1.53;1.07;;;11.40;98.20;;;;;;5030910;28;20882;-78
2023/03/31 05:28:39;;;;;;;1.60;1.10;;;11.50;98.20;;;;;;5056850;28;20517;-78
2023/03/31 05:31:07;;;;;;;1.53;1.10;;;11.50;98.20;;;;;;5030775;28;20547;-77
2023/03/31 05:33:39;;;;;;;1.50;1.10;;;11.50;98.20;;;;;;5057032;28;20473;-77
2023/03/31 05:36:06;;;;;;;1.60;1.10;;;11.50;98.20;;;;;;5032277;28;20882;-78
2023/03/31 05:38:34;;;;;;;1.50;1.00;;;11.50;98.20;;;;;;5056510;28;20484;-78
2023/03/31 05:41:01;;;;;;;1.50;1.07;;;11.50;98.20;;;;;;5028209;28;20573;-77
2023/03/31 05:43:28;;;;;;;1.57;1.13;;;11.50;98.20;;;;;;5057830;28;20473;-77
2023/03/31 05:45:55;;;;;;;1.60;1.20;;;11.50;98.20;;;;;;5024047;28;20474;-77
2023/03/31 05:48:22;;;;;;;1.50;1.10;;;11.50;98.20;;;;;;5037299;28;20512;-77
2023/03/31 05:50:50;;;;;;;1.50;1.00;;;11.50;98.20;;;;;;5027623;28;20514;-78
2023/03/31 05:53:17;;;;;;;1.50;1.00;;;11.50;98.20;;;;;;5045888;28;20485;-77
2023/03/31 05:55:44;;;;;;;1.53;1.10;;;11.50;98.20;;;;;;5038884;28;20560;-78
2023/03/31 05:58:11;;;;;;;1.50;1.00;;;11.50;98.20;;;;;;5033737;28;20494;-77
2023/03/31 06:00:38;;;;;;;1.50;1.00;;;11.50;98.20;;;;;;5036393;28;20466;-78
2023/03/31 06:03:06;;;;;;;1.50;1.10;;;11.40;98.20;;;;;;5028357;28;20910;-79
2023/03/31 06:05:33;;;;;;;1.80;1.70;;;11.40;98.20;;;;;;5025466;28;20840;-79
2023/03/31 06:08:02;;;;;;;1.60;1.10;;;11.30;98.20;;;;;;5038961;28;20496;-77
2023/03/31 06:10:29;;;;;;;1.50;1.00;;;11.30;98.20;;;;;;5036994;28;21036;-77
2023/03/31 06:12:56;;;;;;;1.57;1.10;;;11.20;98.20;;;;;;5041806;28;20560;-77
2023/03/31 06:15:23;;;;;;;1.57;1.10;;;11.20;98.20;;;;;;5037915;28;20470;-77
2023/03/31 06:17:50;;;;;;;1.50;1.00;;;11.20;98.20;;;;;;5043307;28;20493;-77
2023/03/31 06:20:17;;;;;;;1.53;1.10;;;11.10;98.20;;;;;;5036022;28;20777;-78
2023/03/31 06:22:44;;;;;;;1.53;1.10;;;11.10;98.20;;;;;;5024996;28;20497;-78
2023/03/31 06:25:12;;;;;;;1.50;1.10;;;11.10;98.20;;;;;;5038758;28;20918;-77
2023/03/31 06:27:40;;;;;;;1.50;1.10;;;11.00;98.20;;;;;;5024698;28;20990;-79
2023/03/31 06:30:08;;;;;;;1.50;1.00;;;11.00;98.20;;;;;;5036449;28;20470;-83
2023/03/31 06:32:35;;;;;;;1.60;1.20;;;11.00;98.20;;;;;;5037825;28;20488;-78
2023/03/31 06:35:01;;;;;;;1.60;1.10;;;11.00;98.20;;;;;;5036443;28;20835;-78
2023/03/31 06:37:28;;;;;;;1.50;1.10;;;11.00;98.20;;;;;;5021153;28;20483;-80
2023/03/31 06:39:55;;;;;;;1.60;1.20;;;11.00;98.20;;;;;;5035328;28;20462;-78
2023/03/31 06:42:23;;;;;;;1.60;1.20;;;11.00;98.20;;;;;;5025221;28;20510;-79
2023/03/31 06:44:50;;;;;;;1.60;1.10;;;10.90;98.20;;;;;;5037697;28;21008;-78
2023/03/31 06:47:17;;;;;;;1.57;1.10;;;10.90;98.20;;;;;;5029269;28;20514;-79
2023/03/31 06:49:43;;;;;;;1.57;1.10;;;10.90;98.20;;;;;;5038386;28;20473;-79
2023/03/31 06:52:10;;;;;;;1.50;1.10;;;10.90;98.20;;;;;;5023994;28;20478;-78
2023/03/31 06:54:37;;;;;;;1.50;1.10;;;10.90;98.20;;;;;;5038031;28;20465;-77
2023/03/31 06:57:04;;;;;;;1.60;1.20;;;10.90;98.20;;;;;;5034594;28;20999;-77
2023/03/31 06:59:32;;;;;;;1.50;1.10;;;10.90;98.20;;;;;;5043515;28;20936;-78
2023/03/31 07:01:59;;;;;;;1.57;1.10;;;10.90;98.20;;;;;;5019177;28;20871;-77
2023/03/31 07:04:26;;;;;;;1.50;1.13;;;10.90;98.20;;;;;;5032305;28;20495;-77
2023/03/31 07:06:54;;;;;;;1.50;1.10;;;10.90;98.20;;;;;;5025110;28;20649;-78
2023/03/31 07:09:22;;;;;;;1.50;1.10;;;10.90;98.20;;;;;;5039838;28;20469;-78
2023/03/31 07:11:49;;;;;;;1.57;1.10;;;11.00;98.20;;;;;;5029647;28;20899;-78
2023/03/31 07:14:17;;;;;;;1.57;1.10;;;11.00;98.20;;;;;;5042673;28;20454;-78
2023/03/31 07:16:46;;;;;;;1.70;1.37;;;11.00;98.20;;;;;;5029248;28;20508;-78
2023/03/31 07:19:14;;;;;;;1.50;1.10;;;11.10;98.20;;;;;;5034176;28;20492;-77
2023/03/31 07:21:41;;;;;;;1.57;1.10;;;11.10;98.20;;;;;;5029814;28;20953;-78
2023/03/31 07:24:08;;;;;;;1.60;1.20;;;11.10;98.20;;;;;;5036744;28;20537;-78
2023/03/31 07:26:36;;;;;;;1.60;1.13;;;11.20;98.20;;;;;;5035187;28;20481;-78
2023/03/31 07:29:03;;;;;;;1.50;1.10;;;11.20;98.20;;;;;;5050837;28;20473;-78
2023/03/31 07:31:30;;;;;;;1.57;1.10;;;11.20;98.20;;;;;;5033098;28;20477;-78
2023/03/31 07:33:59;;;;;;;1.60;1.10;;;11.40;98.20;;;;;;5047924;28;20467;-78
2023/03/31 07:36:28;;;;;;;1.57;1.10;;;11.40;98.20;;;;;;5034434;28;20491;-78
2023/03/31 07:38:55;;;;;;;1.60;1.10;;;11.50;98.20;;;;;;5052140;28;21285;-77
2023/03/31 07:41:22;;;;;;;1.50;1.00;;;11.60;98.20;;;;;;5024171;28;20490;-78
2023/03/31 07:43:51;;;;;;;1.60;1.10;;;11.70;98.20;;;;;;5042097;28;20478;-78
2023/03/31 07:46:20;;;;;;;1.53;1.10;;;11.70;98.20;;;;;;5025435;28;20489;-77
2023/03/31 07:48:50;;;;;;;1.50;1.00;;;11.80;98.20;;;;;;5039151;28;20486;-78
2023/03/31 07:51:21;;;;;;;1.57;1.00;;;11.90;98.20;;;;;;5032481;28;20545;-77
2023/03/31 07:53:51;;;;;;;1.53;1.10;;;12.00;98.20;;;;;;5048488;28;20838;-78
2023/03/31 07:56:20;;;;;;;1.60;1.20;;;12.20;98.20;;;;;;5023465;28;20484;-77
2023/03/31 07:58:48;;;;;;;1.50;1.00;;;12.40;98.20;;;;;;5032067;28;20681;-78
2023/03/31 08:01:17;;;;;;;1.60;1.10;;;12.60;98.20;;;;;;5029734;28;20610;-78
2023/03/31 08:03:46;;;;;;;1.50;1.00;;;12.80;98.20;;;;;;5050962;28;20470;-79
2023/03/31 08:06:20;;;;;;;1.50;1.00;;;13.00;98.20;;;;;;5030517;28;20489;-78
2023/03/31 08:08:48;;;;;;;1.60;1.10;;;13.10;98.20;;;;;;5052359;28;20995;-78
2023/03/31 08:11:15;;;;;;;1.57;1.00;;;13.30;98.20;;;;;;5032398;28;20514;-78
2023/03/31 08:13:43;;;;;;;1.50;1.00;;;13.30;98.20;;;;;;5053118;28;20887;-78
2023/03/31 08:16:10;;;;;;;1.50;1.00;;;13.30;98.20;;;;;;5027287;28;20488;-78
2023/03/31 08:18:38;;;;;;;1.53;0.97;;;13.30;98.20;;;;;;5043858;28;20478;-77
2023/03/31 08:21:05;;;;;;;1.53;1.00;;;13.40;98.20;;;;;;5024620;28;20887;-75
2023/03/31 08:23:34;;;;;;;1.53;1.00;;;13.30;98.20;;;;;;5034405;28;20470;-76
2023/03/31 08:26:23;;;;;;;1.57;1.00;;;13.30;98.20;;;;;;5025656;28;20596;-77
2023/03/31 08:28:50;;;;;;;1.50;0.90;;;13.10;98.20;;;;;;5030575;28;20561;-78
2023/03/31 08:31:20;;;;;;;1.50;1.03;;;13.10;98.20;;;;;;5027824;28;20565;-77
2023/03/31 08:33:47;;;;;;;1.50;1.00;;;13.10;98.20;;;;;;5041300;28;20462;-77
2023/03/31 08:36:15;;;;;;;1.57;1.10;;;13.10;98.20;;;;;;5029192;28;21055;-77
2023/03/31 08:38:46;;;;;;;1.50;1.00;;;13.10;98.20;;;;;;5032338;28;20493;-81
2023/03/31 08:41:26;;;;;;;1.50;1.00;;;13.10;98.20;;;;;;5028357;28;20482;-77
2023/03/31 08:43:59;;;;;;;1.50;1.00;;;13.10;98.20;;;;;;5042348;28;20880;-79
2023/03/31 08:46:32;;;;;;;1.50;1.00;;;13.10;98.20;;;;;;5031510;28;20486;-77
2023/03/31 08:49:01;;;;;;;1.50;0.93;;;13.20;98.20;;;;;;5038321;28;20495;-78
2023/03/31 08:51:32;;;;;;;1.60;1.00;;;13.30;98.20;;;;;;5024957;28;21084;-78
2023/03/31 08:54:03;;;;;;;1.57;1.00;;;13.50;98.20;;;;;;5031157;28;20491;-78
2023/03/31 08:56:36;;;;;;;1.50;1.00;;;13.60;98.20;;;;;;5031199;28;20539;-78
2023/03/31 08:59:05;;;;;;;1.50;0.90;;;13.80;98.20;;;;;;5044457;28;20485;-78
2023/03/31 09:01:43;;;;;;;1.60;1.00;;;14.00;98.20;;;;;;5031513;28;20488;-78
2023/03/31 09:04:26;;;;;;;1.50;0.90;;;14.30;98.20;;;;;;5043373;28;20458;-78
2023/03/31 09:07:02;;;;;;;1.60;1.00;;;14.60;98.20;;;;;;5026917;28;20754;-79
2023/03/31 09:09:44;;;;;;;1.57;1.00;;;14.80;98.20;;;;;;5036940;28;20468;-78
2023/03/31 09:12:16;;;;;;;1.57;1.00;;;14.90;98.20;;;;;;5021155;28;20475;-78
2023/03/31 09:14:52;;;;;;;1.50;0.97;;;15.00;98.20;;;;;;5031588;28;20459;-78
2023/03/31 09:17:25;;;;;;;1.53;1.00;;;15.10;98.20;;;;;;5022196;28;20491;-78
2023/03/31 09:19:58;;;;;;;1.57;1.03;;;15.10;98.20;;;;;;5031229;28;20474;-77
2023/03/31 09:22:30;;;;;;;1.53;1.00;;;15.20;98.20;;;;;;5023979;28;20490;-77
2023/03/31 09:25:05;;;;;;;1.60;1.00;;;15.30;98.20;;;;;;5031115;28;20491;-77
2023/03/31 09:27:36;;;;;;;1.50;0.97;;;15.40;98.20;;;;;;5029412;28;20493;-77
2023/03/31 09:30:05;;;;;;;1.53;1.00;;;15.40;98.20;;;;;;5034249;28;20957;-74
2023/03/31 09:32:33;;;;;;;1.57;0.93;;;15.40;98.20;;;;;;5039403;28;20603;-77
2023/03/31 09:35:13;;;;;;;1.50;1.00;;;15.50;98.20;;;;;;5036504;28;20549;-77
2023/03/31 09:37:40;;;;;;;1.50;1.00;;;15.60;98.20;;;;;;5039995;28;21982;-77
2023/03/31 09:40:17;;;;;;;1.60;1.10;;;15.70;98.20;;;;;;5038193;28;20499;-77
2023/03/31 09:42:46;;;;;;;1.50;0.90;;;16.00;98.20;;;;;;5017841;28;20609;-78
2023/03/31 09:45:16;;;;;;;1.50;1.00;;;16.10;98.20;;;;;;5032633;28;20579;-78
2023/03/31 09:47:46;;;;;;;1.57;1.00;;;16.10;98.20;;;;;;5027825;28;20526;-78
2023/03/31 09:50:15;;;;;;;1.53;0.93;;;16.20;98.20;;;;;;5035782;28;20561;-77
2023/03/31 09:52:46;;;;;;;1.50;1.00;;;16.20;98.20;;;;;;5022586;28;20482;-77
2023/03/31 09:55:22;;;;;;;1.50;1.00;;;16.20;98.20;;;;;;5033560;28;20470;-77
2023/03/31 09:57:49;;;;;;;1.53;1.00;;;16.00;98.20;;;;;;5032966;28;20481;-77
2023/03/31 10:00:19;;;;;;;1.50;1.00;;;15.90;98.20;;;;;;5033562;28;20830;-77
2023/03/31 10:02:50;;;;;;;1.50;0.90;;;15.70;98.20;;;;;;5029086;28;20900;-76
2023/03/31 10:05:30;;;;;;;1.50;1.00;;;15.60;98.20;;;;;;5038138;28;21057;-77
2023/03/31 10:08:21;;;;;;;1.50;1.00;;;15.40;98.20;;;;;;5041992;28;21676;-78
2023/03/31 10:10:53;;;;;;;1.50;0.90;;;15.20;98.20;;;;;;5024287;28;20478;-77
2023/03/31 10:13:23;;;;;;;1.57;1.00;;;15.10;98.20;;;;;;5027099;28;20561;-79
2023/03/31 10:15:53;;;;;;;1.50;1.00;;;15.10;98.20;;;;;;5023414;28;20830;-76
2023/03/31 10:18:35;;;;;;;1.53;1.00;;;15.10;98.20;;;;;;5031297;28;20988;-79
2023/03/31 10:21:05;;;;;;;1.50;0.90;;;15.10;98.20;;;;;;5018525;28;20681;-76
2023/03/31 10:23:35;;;;;;;1.50;0.97;;;15.10;98.20;;;;;;5051024;28;20463;-77
2023/03/31 10:26:05;;;;;;;1.50;1.00;;;15.30;98.20;;;;;;5022320;28;21032;-77
2023/03/31 10:28:36;;;;;;;1.50;0.90;;;15.40;98.20;;;;;;5036968;28;20486;-77
2023/03/31 10:31:04;;;;;;;1.93;1.73;;;15.60;98.20;;;;;;5021650;28;20459;-77
2023/03/31 10:33:34;;;;;;;1.50;0.90;;;15.90;98.20;;;;;;5036207;28;20459;-78
2023/03/31 10:36:07;;;;;;;1.50;0.90;;;16.20;98.20;;;;;;5019835;28;20530;-77
2023/03/31 10:38:38;;;;;;;1.50;1.00;;;16.40;98.20;;;;;;5040954;28;20581;-76
2023/03/31 10:41:07;;;;;;;1.50;0.90;;;16.60;98.20;;;;;;5025787;28;20462;-77
2023/03/31 10:43:40;;;;;;;1.50;0.90;;;16.70;98.20;;;;;;5048418;28;20472;-77
2023/03/31 10:46:09;;;;;;;1.50;1.00;;;16.80;98.20;;;;;;5022373;28;20559;-77
2023/03/31 10:48:38;;;;;;;1.50;0.93;;;16.80;97.30;;;;;;5038118;28;20497;-77
2023/03/31 10:51:12;;;;;;;1.50;0.97;;;16.70;96.50;;;;;;5022857;28;20463;-77
2023/03/31 10:53:41;;;;;;;1.50;1.00;;;16.50;97.70;;;;;;5040637;28;20466;-85
2023/03/31 10:56:28;;;;;;;1.50;0.90;;;16.20;98.20;;;;;;5025662;28;20455;-78
2023/03/31 10:59:09;;;;;;;1.60;1.20;;;15.80;98.20;;;;;;5031373;28;21142;-78
2023/03/31 11:01:45;;;;;;;1.50;1.00;;;15.40;98.20;;;;;;5025549;28;20490;-78
2023/03/31 11:04:46;;;;;;;1.50;1.00;;;14.90;98.20;;;;;;5037090;28;20473;-78
2023/03/31 11:07:28;;;;;;;1.50;1.00;;;14.50;98.20;;;;;;4989202;28;20534;-77
2023/03/31 11:10:21;;;;;;;1.50;1.00;;;14.30;98.20;;;;;;5036380;28;20769;-79
2023/03/31 11:12:57;;;;;;;1.57;1.00;;;14.20;98.20;;;;;;5022151;28;20982;-77
2023/03/31 11:15:30;;;;;;;1.50;0.90;;;14.00;98.20;;;;;;5033080;28;21221;-78
2023/03/31 11:18:25;;;;;;;1.50;1.00;;;13.70;98.20;;;;;;5028997;28;20482;-77
2023/03/31 11:21:01;;;;;;;1.53;1.10;;;13.30;98.20;;;;;;5022013;28;20471;-78
2023/03/31 11:23:41;;;;;;;1.50;1.00;;;13.00;98.20;;;;;;5038026;28;20465;-77
2023/03/31 11:26:17;;;;;;;1.50;1.00;;;12.90;98.20;;;;;;5025484;28;20528;-79
2023/03/31 11:29:15;;;;;;;1.50;1.00;;;12.90;98.20;;;;;;5044199;28;20474;-77
2023/03/31 11:31:51;;;;;;;1.50;1.00;;;12.90;98.20;;;;;;5023820;28;20481;-77
2023/03/31 11:34:49;;;;;;;1.50;1.00;;;13.00;98.20;;;;;;5036168;28;20466;-79
2023/03/31 11:37:31;;;;;;;1.50;0.90;;;13.10;98.20;;;;;;5024095;28;20482;-79
2023/03/31 11:40:16;;;;;;;1.50;1.00;;;13.30;98.20;;;;;;5032290;28;20946;-78
2023/03/31 11:42:50;;;;;;;1.50;1.10;;;13.40;98.20;;;;;;5031124;28;20523;-79
2023/03/31 11:45:38;;;;;;;1.50;1.00;;;13.60;98.20;;;;;;5031169;28;20466;-79
2023/03/31 11:48:11;;;;;;;1.50;1.00;;;13.70;98.20;;;;;;5026273;28;20477;-79
2023/03/31 11:50:41;;;;;;;1.50;1.00;;;13.90;98.20;;;;;;5025723;28;20904;-79
2023/03/31 11:53:17;;;;;;;1.50;0.90;;;14.00;98.20;;;;;;5028671;28;20483;-79
2023/03/31 11:55:48;;;;;;;1.50;1.00;;;14.10;98.20;;;;;;5031203;28;20463;-80
2023/03/31 11:58:20;;;;;;;1.50;1.00;;;14.20;98.20;;;;;;5024271;28;20492;-79
2023/03/31 12:00:53;;;;;;;1.50;1.00;;;14.40;98.20;;;;;;5029912;28;20469;-78
2023/03/31 12:03:25;;;;;;;1.57;1.00;;;14.50;98.20;;;;;;5038323;28;20474;-78
2023/03/31 12:05:57;;;;;;;1.57;1.00;;;14.70;98.20;;;;;;5023185;28;20492;-78
2023/03/31 12:08:33;;;;;;;1.53;1.10;;;14.80;98.20;;;;;;5038834;28;20489;-78
2023/03/31 12:11:05;;;;;;;1.57;1.17;;;15.00;98.20;;;;;;5025741;28;20451;-78
2023/03/31 12:13:44;;;;;;;1.50;1.00;;;14.90;98.20;;;;;;5049445;28;20466;-78
2023/03/31 12:16:17;;;;;;;1.50;1.00;;;14.90;98.20;;;;;;5023701;28;20890;-78
2023/03/31 12:18:54;;;;;;;1.50;1.00;;;14.80;98.20;;;;;;5039459;28;20477;-77
2023/03/31 12:21:25;;;;;;;1.50;1.00;;;14.90;98.20;;;;;;5027423;28;21168;-78
2023/03/31 12:23:56;;;;;;;1.50;1.00;;;15.00;98.20;;;;;;5044752;28;20497;-78
2023/03/31 12:26:39;;;;;;;1.50;1.00;;;15.10;98.20;;;;;;5023833;28;20481;-78
2023/03/31 12:29:21;;;;;;;1.57;0.90;;;15.30;98.20;;;;;;5041267;28;20482;-78
2023/03/31 12:31:54;;;;;;;1.50;1.03;;;15.40;98.20;;;;;;5022741;28;21150;-77
2023/03/31 12:34:27;;;;;;;1.50;1.00;;;15.50;98.20;;;;;;5036684;28;20876;-79
2023/03/31 12:37:10;;;;;;;1.50;1.00;;;15.70;98.20;;;;;;5028243;28;20616;-78
2023/03/31 12:39:45;;;;;;;1.57;1.00;;;15.90;98.20;;;;;;5036381;28;20467;-78
2023/03/31 12:42:36;;;;;;;1.53;1.00;;;16.10;98.20;;;;;;5032268;28;20582;-79
2023/03/31 12:45:11;;;;;;;1.50;1.00;;;16.30;98.20;;;;;;5033761;28;20978;-78
2023/03/31 12:47:59;;;;;;;1.50;0.90;;;16.40;98.20;;;;;;5027236;28;20490;-78
2023/03/31 12:50:41;;;;;;;1.50;1.00;;;16.50;98.20;;;;;;5029909;28;20471;-77
2023/03/31 12:53:21;;;;;;;1.50;0.97;;;16.60;98.20;;;;;;5029892;28;20628;-77
2023/03/31 12:55:52;;;;;;;1.53;0.90;;;16.60;98.20;;;;;;5032543;28;20718;-78
2023/03/31 12:58:46;;;;;;;1.50;1.00;;;16.60;98.20;;;;;;5021073;28;20963;-77
2023/03/31 13:01:17;;;;;;;1.53;0.93;;;16.70;98.20;;;;;;5024847;28;21015;-78
2023/03/31 13:03:54;;;;;;;1.57;0.90;;;16.70;98.20;;;;;;5043154;28;20529;-78
2023/03/31 13:06:58;;;;;;;1.50;0.93;;;16.70;98.20;;;;;;5019698;28;20494;-79
2023/03/31 13:09:46;;;;;;;1.50;1.00;;;16.60;98.20;;;;;;5041164;28;20462;-77
2023/03/31 13:12:22;;;;;;;1.50;0.93;;;16.60;98.20;;;;;;5035962;28;20489;-78
2023/03/31 13:14:53;;;;;;;1.50;0.93;;;16.40;98.20;;;;;;5033759;28;20465;-78